createdAt,value
2022-09-09T00:00:02.906Z,95876
2022-09-09T00:01:02.913Z,95878
2022-09-09T00:03:02.990Z,95877
2022-09-09T00:04:02.926Z,95878
2022-09-09T00:05:02.934Z,95876
2022-09-09T00:06:02.936Z,95875
2022-09-09T00:07:02.935Z,95878
2022-09-09T00:08:02.925Z,95875
2022-09-09T00:12:02.967Z,95878
2022-09-09T00:13:02.951Z,95875
2022-09-09T00:14:02.934Z,95876
2022-09-09T00:15:02.941Z,95877
2022-09-09T00:16:02.989Z,95874
2022-09-09T00:17:02.980Z,95871
2022-09-09T00:18:02.947Z,95871
2022-09-09T00:20:02.966Z,95868
2022-09-09T00:21:03.092Z,95873
2022-09-09T00:22:02.964Z,95873
2022-09-09T00:23:02.960Z,95869
2022-09-09T00:24:04.944Z,95868
2022-09-09T00:25:02.979Z,95868
2022-09-09T00:26:03.005Z,95870
2022-09-09T00:27:02.992Z,95864
2022-09-09T00:28:02.973Z,95863
2022-09-09T00:29:03.020Z,95865
2022-09-09T00:30:03.008Z,95869
2022-09-09T00:31:03.075Z,95869
2022-09-09T00:32:02.989Z,95869
2022-09-09T00:33:02.991Z,95867
2022-09-09T00:34:03.011Z,95868
2022-09-09T00:35:03.021Z,95863
2022-09-09T00:36:03.029Z,95861
2022-09-09T00:37:03.001Z,95863
2022-09-09T00:39:03.001Z,95863
2022-09-09T00:40:03.141Z,95866
2022-09-09T00:41:03.052Z,95867
2022-09-09T00:42:03.003Z,95860
2022-09-09T00:44:03.016Z,95860
2022-09-09T00:45:03.039Z,95863
2022-09-09T00:51:03.050Z,95863
2022-09-09T00:54:03.061Z,95863
2022-09-09T00:57:03.071Z,95872
2022-09-09T00:58:03.069Z,95873
2022-09-09T01:00:03.052Z,95878
2022-09-09T01:01:05.165Z,95883
2022-09-09T01:02:03.132Z,95881
2022-09-09T01:03:03.087Z,95881
2022-09-09T01:04:03.088Z,95879
2022-09-09T01:05:03.070Z,95879
2022-09-09T01:06:03.082Z,95877
2022-09-09T01:07:03.087Z,95874
2022-09-09T01:08:03.093Z,95875
2022-09-09T01:09:03.082Z,95874
2022-09-09T01:10:03.102Z,95873
2022-09-09T01:11:03.090Z,95873
2022-09-09T01:12:03.102Z,95871
2022-09-09T01:13:03.112Z,95875
2022-09-09T01:16:03.123Z,95871
2022-09-09T01:17:03.163Z,95875
2022-09-09T01:19:03.117Z,95873
2022-09-09T01:20:03.144Z,95873
2022-09-09T01:21:03.132Z,95871
2022-09-09T01:22:03.121Z,95875
2022-09-09T01:23:03.127Z,95873
2022-09-09T01:24:03.143Z,95871
2022-09-09T01:25:03.155Z,95872
2022-09-09T01:26:03.158Z,95873
2022-09-09T01:27:03.143Z,95875
2022-09-09T01:29:03.127Z,95884
2022-09-09T01:30:03.124Z,95887
2022-09-09T01:31:03.184Z,95890
2022-09-09T01:32:03.147Z,95894
2022-09-09T01:33:03.156Z,95895
2022-09-09T01:34:03.138Z,95895
2022-09-09T01:35:03.149Z,95889
2022-09-09T01:36:03.180Z,95891
2022-09-09T01:37:03.170Z,95891
2022-09-09T01:38:05.316Z,95890
2022-09-09T01:39:03.142Z,95890
2022-09-09T01:40:03.289Z,95889
2022-09-09T01:41:03.196Z,95884
2022-09-09T01:42:03.186Z,95882
2022-09-09T01:43:03.184Z,95884
2022-09-09T01:44:03.174Z,95885
2022-09-09T01:45:03.163Z,95881
2022-09-09T01:46:03.273Z,95879
2022-09-09T01:47:03.173Z,95879
2022-09-09T01:48:03.177Z,95877
2022-09-09T01:49:03.184Z,95886
2022-09-09T01:50:03.189Z,95884
2022-09-09T01:51:03.186Z,95884
2022-09-09T01:52:03.183Z,95892
2022-09-09T01:53:03.187Z,95890
2022-09-09T01:54:03.191Z,95890
2022-09-09T01:55:03.220Z,95888
2022-09-09T01:56:03.194Z,95892
2022-09-09T01:57:03.221Z,95895
2022-09-09T01:58:03.211Z,95890
2022-09-09T01:59:03.214Z,95896
2022-09-09T02:00:03.214Z,95898
2022-09-09T02:05:03.232Z,95898
2022-09-09T02:06:03.238Z,95898
2022-09-09T02:07:03.224Z,95898
2022-09-09T02:08:03.241Z,95898
2022-09-09T02:09:03.230Z,95899
2022-09-09T02:10:03.257Z,95903
2022-09-09T02:11:03.229Z,95903
2022-09-09T02:12:03.236Z,95910
2022-09-09T02:13:03.250Z,95910
2022-09-09T02:14:03.239Z,95911
2022-09-09T02:15:05.500Z,95909
2022-09-09T02:16:03.248Z,95903
2022-09-09T02:17:03.302Z,95903
2022-09-09T02:18:03.252Z,95904
2022-09-09T02:19:03.256Z,95904
2022-09-09T02:20:03.269Z,95907
2022-09-09T02:21:03.276Z,95907
2022-09-09T02:22:03.276Z,95907
2022-09-09T02:23:03.362Z,95909
2022-09-09T02:25:03.285Z,95914
2022-09-09T02:26:03.283Z,95912
2022-09-09T02:27:03.286Z,95910
2022-09-09T02:29:03.287Z,95912
2022-09-09T02:30:03.299Z,95907
2022-09-09T02:31:03.399Z,95905
2022-09-09T02:32:03.304Z,95910
2022-09-09T02:33:03.287Z,95909
2022-09-09T02:34:03.301Z,95909
2022-09-09T02:35:03.320Z,95916
2022-09-09T02:36:03.329Z,95915
2022-09-09T02:37:03.297Z,95915
2022-09-09T02:38:03.331Z,95911
2022-09-09T02:39:03.322Z,95911
2022-09-09T02:40:03.384Z,95913
2022-09-09T02:41:03.337Z,95910
2022-09-09T02:42:03.326Z,95910
2022-09-09T02:43:03.338Z,95913
2022-09-09T02:44:03.319Z,95913
2022-09-09T02:45:03.328Z,95916
2022-09-09T02:46:03.399Z,95914
2022-09-09T02:47:03.336Z,95916
2022-09-09T02:48:03.331Z,95914
2022-09-09T02:49:03.326Z,95914
2022-09-09T02:50:03.342Z,95917
2022-09-09T02:51:03.360Z,95915
2022-09-09T02:53:03.359Z,95924
2022-09-09T02:56:03.358Z,95926
2022-09-09T02:57:03.362Z,95932
2022-09-09T02:58:03.364Z,95929
2022-09-09T02:59:03.367Z,95932
2022-09-09T03:01:03.447Z,95930
2022-09-09T03:03:03.367Z,95927
2022-09-09T03:06:03.380Z,95931
2022-09-09T03:09:03.477Z,95931
2022-09-09T03:10:03.387Z,95931
2022-09-09T03:12:03.384Z,95931
2022-09-09T03:13:03.388Z,95929
2022-09-09T03:14:03.411Z,95925
2022-09-09T03:15:03.394Z,95923
2022-09-09T03:16:03.394Z,95918
2022-09-09T03:17:03.445Z,95922
2022-09-09T03:18:03.410Z,95924
2022-09-09T03:19:03.446Z,95927
2022-09-09T03:20:03.414Z,95928
2022-09-09T03:21:03.425Z,95928
2022-09-09T03:22:03.443Z,95927
2022-09-09T03:23:03.429Z,95927
2022-09-09T03:24:03.448Z,95927
2022-09-09T03:25:03.430Z,95927
2022-09-09T03:26:03.440Z,95929
2022-09-09T03:27:03.442Z,95927
2022-09-09T03:28:03.426Z,95929
2022-09-09T03:29:05.832Z,95929
2022-09-09T03:30:03.458Z,95933
2022-09-09T03:31:03.440Z,95934
2022-09-09T03:33:03.437Z,95934
2022-09-09T03:34:03.482Z,95934
2022-09-09T03:35:03.468Z,95935
2022-09-09T03:36:03.484Z,95932
2022-09-09T03:40:03.613Z,95928
2022-09-09T03:41:03.508Z,95927
2022-09-09T03:42:03.478Z,95933
2022-09-09T03:45:03.482Z,95937
2022-09-09T03:47:03.502Z,95935
2022-09-09T03:48:03.506Z,95938
2022-09-09T03:49:03.487Z,95937
2022-09-09T03:50:03.496Z,95937
2022-09-09T03:51:03.517Z,95935
2022-09-09T03:52:03.510Z,95932
2022-09-09T03:53:03.495Z,95931
2022-09-09T03:54:03.515Z,95932
2022-09-09T03:55:03.527Z,95934
2022-09-09T03:57:03.529Z,95937
2022-09-09T03:58:03.512Z,95935
2022-09-09T03:59:03.532Z,95935
2022-09-09T04:00:03.519Z,95934
2022-09-09T04:01:03.594Z,95931
2022-09-09T04:02:03.622Z,95928
2022-09-09T04:03:03.524Z,95929
2022-09-09T04:04:03.538Z,95928
2022-09-09T04:05:03.549Z,95926
2022-09-09T04:08:03.571Z,95926
2022-09-09T04:09:03.541Z,95921
2022-09-09T04:11:03.553Z,95922
2022-09-09T04:12:03.570Z,95921
2022-09-09T04:13:03.576Z,95918
2022-09-09T04:14:03.578Z,95918
2022-09-09T04:15:03.566Z,95916
2022-09-09T04:17:03.590Z,95920
2022-09-09T04:18:03.572Z,95918
2022-09-09T04:20:03.594Z,95913
2022-09-09T04:21:03.605Z,95913
2022-09-09T04:23:03.586Z,95930
2022-09-09T04:24:03.577Z,95935
2022-09-09T04:25:03.578Z,95935
2022-09-09T04:28:03.609Z,95939
2022-09-09T04:29:03.600Z,95939
2022-09-09T04:31:03.593Z,95943
2022-09-09T04:32:03.698Z,95941
2022-09-09T04:33:03.597Z,95941
2022-09-09T04:35:03.613Z,95935
2022-09-09T04:36:03.642Z,95929
2022-09-09T04:37:03.604Z,95931
2022-09-09T04:38:03.620Z,95932
2022-09-09T04:39:03.620Z,95930
2022-09-09T04:40:03.713Z,95928
2022-09-09T04:41:03.634Z,95929
2022-09-09T04:42:03.622Z,95929
2022-09-09T04:44:03.640Z,95930
2022-09-09T04:45:03.642Z,95929
2022-09-09T04:46:03.703Z,95926
2022-09-09T04:47:03.652Z,95921
2022-09-09T04:50:03.671Z,95915
2022-09-09T04:51:03.637Z,95915
2022-09-09T04:52:03.654Z,95917
2022-09-09T04:53:03.663Z,95917
2022-09-09T04:54:03.673Z,95923
2022-09-09T04:55:03.672Z,95923
2022-09-09T04:56:03.647Z,95919
2022-09-09T04:57:03.662Z,95919
2022-09-09T04:58:03.676Z,95921
2022-09-09T04:59:03.681Z,95922
2022-09-09T05:00:03.681Z,95923
2022-09-09T05:02:03.738Z,95920
2022-09-09T05:03:03.672Z,95921
2022-09-09T05:04:03.704Z,95924
2022-09-09T05:05:03.712Z,95923
2022-09-09T05:06:03.697Z,95922
2022-09-09T05:08:03.716Z,95923
2022-09-09T05:09:03.704Z,95930
2022-09-09T05:10:03.706Z,95930
2022-09-09T05:11:03.703Z,95928
2022-09-09T05:12:03.701Z,95928
2022-09-09T05:13:03.695Z,95927
2022-09-09T05:14:03.730Z,95926
2022-09-09T05:15:03.700Z,95932
2022-09-09T05:16:03.811Z,95928
2022-09-09T05:17:03.720Z,95923
2022-09-09T05:18:03.728Z,95924
2022-09-09T05:19:03.738Z,95928
2022-09-09T05:20:09.823Z,95928
2022-09-09T05:21:03.720Z,95928
2022-09-09T05:22:03.726Z,95930
2022-09-09T05:23:03.743Z,95930
2022-09-09T05:24:03.737Z,95928
2022-09-09T05:25:03.740Z,95925
2022-09-09T05:26:03.736Z,95926
2022-09-09T05:27:03.772Z,95927
2022-09-09T05:28:03.750Z,95926
2022-09-09T05:29:03.755Z,95931
2022-09-09T05:30:03.765Z,95931
2022-09-09T05:31:03.773Z,95932
2022-09-09T05:32:03.772Z,95931
2022-09-09T05:33:03.749Z,95931
2022-09-09T05:34:03.773Z,95927
2022-09-09T05:35:03.791Z,95927
2022-09-09T05:36:03.766Z,95932
2022-09-09T05:37:03.773Z,95932
2022-09-09T05:38:03.787Z,95932
2022-09-09T05:39:03.773Z,95935
2022-09-09T05:40:03.866Z,95931
2022-09-09T05:41:03.779Z,95934
2022-09-09T05:42:03.767Z,95934
2022-09-09T05:43:03.780Z,95939
2022-09-09T05:44:03.802Z,95944
2022-09-09T05:45:03.823Z,95947
2022-09-09T05:46:03.786Z,95947
2022-09-09T05:47:03.854Z,95945
2022-09-09T05:48:03.804Z,95949
2022-09-09T05:49:03.805Z,95948
2022-09-09T05:50:03.812Z,95948
2022-09-09T05:51:03.804Z,95948
2022-09-09T05:52:03.828Z,95948
2022-09-09T05:53:03.813Z,95947
2022-09-09T05:54:03.819Z,95948
2022-09-09T05:55:03.875Z,95949
2022-09-09T05:56:03.820Z,95947
2022-09-09T05:57:06.629Z,95948
2022-09-09T05:58:03.825Z,95951
2022-09-09T05:59:03.830Z,95951
2022-09-09T06:00:03.854Z,95953
2022-09-09T06:01:03.831Z,95949
2022-09-09T06:02:03.932Z,95954
2022-09-09T06:03:03.969Z,95954
2022-09-09T06:04:03.891Z,95954
2022-09-09T06:05:03.858Z,95957
2022-09-09T06:06:03.836Z,95957
2022-09-09T06:07:03.864Z,95960
2022-09-09T06:08:03.873Z,95959
2022-09-09T06:09:03.864Z,95956
2022-09-09T06:10:03.884Z,95955
2022-09-09T06:11:03.868Z,95956
2022-09-09T06:13:03.871Z,95952
2022-09-09T06:14:03.868Z,95953
2022-09-09T06:15:03.927Z,95949
2022-09-09T06:19:03.872Z,95946
2022-09-09T06:20:03.898Z,95944
2022-09-09T06:21:03.892Z,95946
2022-09-09T06:22:03.899Z,95942
2022-09-09T06:23:03.904Z,95940
2022-09-09T06:24:03.886Z,95943
2022-09-09T06:25:03.994Z,95941
2022-09-09T06:27:03.952Z,95947
2022-09-09T06:28:03.922Z,95948
2022-09-09T06:29:03.897Z,95948
2022-09-09T06:30:03.947Z,95945
2022-09-09T06:31:03.958Z,95947
2022-09-09T06:32:04.031Z,95946
2022-09-09T06:33:03.940Z,95947
2022-09-09T06:34:06.780Z,95947
2022-09-09T06:35:04.197Z,95945
2022-09-09T06:36:03.921Z,95944
2022-09-09T06:37:03.925Z,95945
2022-09-09T06:38:03.919Z,95943
2022-09-09T06:39:03.946Z,95952
2022-09-09T06:40:03.989Z,95948
2022-09-09T06:41:03.974Z,95945
2022-09-09T06:42:03.930Z,95942
2022-09-09T06:43:03.942Z,95943
2022-09-09T06:44:03.940Z,95942
2022-09-09T06:46:03.967Z,95938
2022-09-09T06:47:04.033Z,95937
2022-09-09T06:48:03.956Z,95933
2022-09-09T06:49:03.976Z,95932
2022-09-09T06:50:03.957Z,95932
2022-09-09T06:51:04.016Z,95933
2022-09-09T06:52:03.966Z,95933
2022-09-09T06:53:03.974Z,95935
2022-09-09T06:54:03.968Z,95936
2022-09-09T06:55:03.976Z,95936
2022-09-09T06:56:04.002Z,95941
2022-09-09T06:57:20.777Z,95943
2022-09-09T06:58:03.990Z,95944
2022-09-09T06:59:03.969Z,95942
2022-09-09T07:00:03.980Z,95946
2022-09-09T07:01:04.043Z,95945
2022-09-09T07:02:04.051Z,95942
2022-09-09T07:03:03.999Z,95942
2022-09-09T07:04:03.981Z,95941
2022-09-09T07:05:03.995Z,95941
2022-09-09T07:06:04.042Z,95943
2022-09-09T07:07:03.988Z,95944
2022-09-09T07:08:04.012Z,95942
2022-09-09T07:09:04.015Z,95946
2022-09-09T07:10:04.082Z,95945
2022-09-09T07:11:11.580Z,95944
2022-09-09T07:12:04.031Z,95942
2022-09-09T07:13:04.013Z,95945
2022-09-09T07:15:04.014Z,95945
2022-09-09T07:16:04.120Z,95948
2022-09-09T07:17:04.043Z,95943
2022-09-09T07:19:04.039Z,95943
2022-09-09T07:20:04.029Z,95944
2022-09-09T07:21:04.038Z,95941
2022-09-09T07:22:04.081Z,95944
2022-09-09T07:24:04.033Z,95947
2022-09-09T07:25:04.047Z,95944
2022-09-09T07:26:04.046Z,95944
2022-09-09T07:27:04.091Z,95953
2022-09-09T07:28:04.063Z,95953
2022-09-09T07:29:04.040Z,95956
2022-09-09T07:30:04.051Z,95953
2022-09-09T07:31:04.137Z,95955
2022-09-09T07:32:04.058Z,95956
2022-09-09T07:33:04.082Z,95956
2022-09-09T07:34:04.057Z,95960
2022-09-09T07:35:04.058Z,95962
2022-09-09T07:36:04.082Z,95960
2022-09-09T07:37:04.091Z,95963
2022-09-09T07:38:04.124Z,95962
2022-09-09T07:39:04.101Z,95962
2022-09-09T07:40:04.150Z,95964
2022-09-09T07:41:04.097Z,95966
2022-09-09T07:42:04.078Z,95963
2022-09-09T07:43:04.123Z,95964
2022-09-09T07:44:04.131Z,95963
2022-09-09T07:45:04.091Z,95968
2022-09-09T07:46:04.176Z,95967
2022-09-09T07:47:04.095Z,95968
2022-09-09T07:48:07.133Z,95969
2022-09-09T07:49:04.119Z,95971
2022-09-09T07:50:04.173Z,95970
2022-09-09T07:51:04.114Z,95970
2022-09-09T07:52:04.182Z,95970
2022-09-09T07:53:04.116Z,95971
2022-09-09T07:54:04.142Z,95975
2022-09-09T07:55:04.119Z,95973
2022-09-09T07:56:04.181Z,95975
2022-09-09T07:57:04.133Z,95976
2022-09-09T07:58:04.144Z,95969
2022-09-09T07:59:04.169Z,95972
2022-09-09T08:00:04.132Z,95968
2022-09-09T08:01:04.147Z,95970
2022-09-09T08:02:04.264Z,95969
2022-09-09T08:03:04.215Z,95968
2022-09-09T08:04:04.164Z,95971
2022-09-09T08:05:05.262Z,95975
2022-09-09T08:06:04.150Z,95968
2022-09-09T08:07:04.164Z,95973
2022-09-09T08:08:05.413Z,95969
2022-09-09T08:09:04.205Z,95968
2022-09-09T08:10:04.151Z,95972
2022-09-09T08:11:04.151Z,95968
2022-09-09T08:12:04.156Z,95970
2022-09-09T08:13:17.890Z,95963
2022-09-09T08:14:04.214Z,95967
2022-09-09T08:15:04.170Z,95972
2022-09-09T08:16:04.235Z,95980
2022-09-09T08:17:04.185Z,95978
2022-09-09T08:18:04.183Z,95978
2022-09-09T08:19:04.241Z,95977
2022-09-09T08:20:04.181Z,95976
2022-09-09T08:21:04.202Z,95976
2022-09-09T08:22:04.194Z,95974
2022-09-09T08:23:04.203Z,95976
2022-09-09T08:24:04.235Z,95974
2022-09-09T08:25:07.316Z,95983
2022-09-09T08:26:04.192Z,95977
2022-09-09T08:27:04.202Z,95977
2022-09-09T08:28:04.227Z,95981
2022-09-09T08:29:04.247Z,95978
2022-09-09T08:30:04.215Z,95987
2022-09-09T08:31:04.309Z,95982
2022-09-09T08:33:04.231Z,95989
2022-09-09T08:34:04.276Z,95985
2022-09-09T08:35:08.017Z,95985
2022-09-09T08:36:04.224Z,95980
2022-09-09T08:37:04.256Z,95985
2022-09-09T08:38:07.633Z,95989
2022-09-09T08:39:04.271Z,95985
2022-09-09T08:40:04.315Z,95985
2022-09-09T08:41:04.257Z,95984
2022-09-09T08:42:04.235Z,95984
2022-09-09T08:43:04.249Z,95989
2022-09-09T08:44:04.274Z,95988
2022-09-09T08:45:04.280Z,95989
2022-09-09T08:46:04.356Z,95985
2022-09-09T08:47:04.273Z,95984
2022-09-09T08:48:04.268Z,95982
2022-09-09T08:49:04.290Z,95984
2022-09-09T08:50:04.264Z,95986
2022-09-09T08:51:04.264Z,95986
2022-09-09T08:52:04.264Z,95988
2022-09-09T08:53:04.268Z,95988
2022-09-09T08:54:04.303Z,95986
2022-09-09T08:55:04.275Z,95992
2022-09-09T08:56:04.307Z,95988
2022-09-09T08:57:04.299Z,95988
2022-09-09T08:58:04.302Z,95989
2022-09-09T08:59:04.324Z,95989
2022-09-09T09:00:04.282Z,95990
2022-09-09T09:01:04.293Z,95990
2022-09-09T09:02:07.520Z,95992
2022-09-09T09:03:04.296Z,95990
2022-09-09T09:04:04.352Z,95988
2022-09-09T09:05:04.386Z,95983
2022-09-09T09:06:04.324Z,95987
2022-09-09T09:07:04.332Z,95984
2022-09-09T09:08:04.315Z,95984
2022-09-09T09:09:04.350Z,95984
2022-09-09T09:10:06.828Z,95987
2022-09-09T09:11:04.307Z,95987
2022-09-09T09:12:04.341Z,95983
2022-09-09T09:13:04.324Z,95994
2022-09-09T09:14:04.367Z,95987
2022-09-09T09:15:04.332Z,95987
2022-09-09T09:16:04.394Z,95986
2022-09-09T09:17:04.354Z,95988
2022-09-09T09:18:04.341Z,95991
2022-09-09T09:19:04.371Z,95991
2022-09-09T09:20:04.335Z,95984
2022-09-09T09:21:04.349Z,95988
2022-09-09T09:22:04.341Z,95987
2022-09-09T09:23:04.348Z,95987
2022-09-09T09:24:04.400Z,95987
2022-09-09T09:25:04.358Z,95984
2022-09-09T09:26:04.451Z,95984
2022-09-09T09:27:04.363Z,95986
2022-09-09T09:28:04.377Z,95986
2022-09-09T09:29:04.387Z,95985
2022-09-09T09:30:23.895Z,95988
2022-09-09T09:31:04.418Z,95988
2022-09-09T09:32:04.380Z,95989
2022-09-09T09:33:04.379Z,95984
2022-09-09T09:34:04.448Z,95983
2022-09-09T09:35:04.394Z,95987
2022-09-09T09:36:04.393Z,95989
2022-09-09T09:37:04.413Z,95989
2022-09-09T09:40:04.738Z,95985
2022-09-09T09:42:06.526Z,95984
2022-09-09T09:43:04.403Z,95984
2022-09-09T09:44:04.409Z,95986
2022-09-09T09:45:04.449Z,95989
2022-09-09T09:46:17.703Z,95989
2022-09-09T09:47:04.519Z,95990
2022-09-09T09:49:04.459Z,95991
2022-09-09T09:50:04.464Z,95988
2022-09-09T09:51:04.422Z,95988
2022-09-09T09:52:04.420Z,95988
2022-09-09T09:53:04.423Z,95990
2022-09-09T09:54:04.444Z,95989
2022-09-09T09:55:07.689Z,95987
2022-09-09T09:56:04.445Z,95987
2022-09-09T09:57:04.483Z,95988
2022-09-09T09:59:09.404Z,95992
2022-09-09T10:00:04.493Z,95991
2022-09-09T10:01:04.468Z,95988
2022-09-09T10:02:04.462Z,95985
2022-09-09T10:04:04.486Z,95981
2022-09-09T10:05:04.590Z,95980
2022-09-09T10:06:04.467Z,95983
2022-09-09T10:07:04.460Z,95985
2022-09-09T10:08:04.471Z,95984
2022-09-09T10:09:04.468Z,95984
2022-09-09T10:10:04.509Z,95986
2022-09-09T10:11:04.497Z,95984
2022-09-09T10:12:04.484Z,95980
2022-09-09T10:13:04.480Z,95984
2022-09-09T10:14:04.484Z,95980
2022-09-09T10:15:04.517Z,95976
2022-09-09T10:16:07.801Z,95975
2022-09-09T10:17:04.502Z,95975
2022-09-09T10:18:04.522Z,95976
2022-09-09T10:19:04.494Z,95979
2022-09-09T10:20:04.522Z,95979
2022-09-09T10:21:04.511Z,95992
2022-09-09T10:22:04.486Z,95992
2022-09-09T10:23:04.530Z,95986
2022-09-09T10:24:04.591Z,95986
2022-09-09T10:25:04.548Z,95987
2022-09-09T10:26:04.534Z,95981
2022-09-09T10:27:04.531Z,95984
2022-09-09T10:29:04.524Z,95989
2022-09-09T10:30:04.550Z,95988
2022-09-09T10:31:04.656Z,95988
2022-09-09T10:32:04.530Z,95992
2022-09-09T10:33:04.549Z,95994
2022-09-09T10:34:04.575Z,95997
2022-09-09T10:35:04.567Z,95999
2022-09-09T10:36:04.555Z,95995
2022-09-09T10:37:04.557Z,95992
2022-09-09T10:39:04.573Z,95996
2022-09-09T10:40:04.679Z,95995
2022-09-09T10:41:04.550Z,95989
2022-09-09T10:42:04.564Z,95987
2022-09-09T10:43:04.565Z,95988
2022-09-09T10:44:04.552Z,95992
2022-09-09T10:45:04.617Z,95990
2022-09-09T10:46:04.639Z,95990
2022-09-09T10:47:08.169Z,95986
2022-09-09T10:48:04.594Z,95988
2022-09-09T10:49:04.630Z,95985
2022-09-09T10:50:04.633Z,95979
2022-09-09T10:51:05.446Z,95979
2022-09-09T10:52:04.582Z,95978
2022-09-09T10:53:07.931Z,95984
2022-09-09T10:54:04.625Z,95984
2022-09-09T10:55:04.680Z,95977
2022-09-09T10:56:04.594Z,95977
2022-09-09T10:57:04.604Z,95975
2022-09-09T10:58:04.600Z,95970
2022-09-09T11:00:04.691Z,95972
2022-09-09T11:01:04.654Z,95972
2022-09-09T11:02:04.623Z,95968
2022-09-09T11:03:04.642Z,95968
2022-09-09T11:04:04.682Z,95969
2022-09-09T11:05:04.652Z,95969
2022-09-09T11:06:04.721Z,95972
2022-09-09T11:07:07.473Z,95971
2022-09-09T11:08:04.654Z,95972
2022-09-09T11:09:04.646Z,95972
2022-09-09T11:10:04.683Z,95968
2022-09-09T11:11:04.653Z,95968
2022-09-09T11:12:04.662Z,95968
2022-09-09T11:13:04.950Z,95970
2022-09-09T11:14:04.642Z,95967
2022-09-09T11:15:04.721Z,95967
2022-09-09T11:17:04.740Z,95961
2022-09-09T11:18:04.643Z,95961
2022-09-09T11:19:04.660Z,95967
2022-09-09T11:20:04.738Z,95967
2022-09-09T11:21:04.667Z,95972
2022-09-09T11:22:04.701Z,95969
2022-09-09T11:24:04.711Z,95966
2022-09-09T11:25:04.731Z,95964
2022-09-09T11:26:04.724Z,95959
2022-09-09T11:28:04.717Z,95955
2022-09-09T11:29:05.180Z,95957
2022-09-09T11:30:08.168Z,95954
2022-09-09T11:31:04.756Z,95951
2022-09-09T11:32:04.692Z,95952
2022-09-09T11:33:04.717Z,95945
2022-09-09T11:34:04.719Z,95946
2022-09-09T11:35:04.711Z,95946
2022-09-09T11:36:07.455Z,95941
2022-09-09T11:37:04.723Z,95940
2022-09-09T11:38:04.696Z,95940
2022-09-09T11:39:04.722Z,95941
2022-09-09T11:40:04.793Z,95944
2022-09-09T11:41:04.749Z,95940
2022-09-09T11:42:04.729Z,95934
2022-09-09T11:43:04.725Z,95930
2022-09-09T11:44:04.714Z,95930
2022-09-09T11:45:04.726Z,95932
2022-09-09T11:46:04.871Z,95936
2022-09-09T11:47:04.737Z,95936
2022-09-09T11:48:04.816Z,95930
2022-09-09T11:49:04.756Z,95935
2022-09-09T11:50:04.757Z,95926
2022-09-09T11:51:04.802Z,95924
2022-09-09T11:52:04.777Z,95922
2022-09-09T11:53:04.818Z,95929
2022-09-09T11:54:04.830Z,95921
2022-09-09T11:55:04.856Z,95927
2022-09-09T11:56:04.808Z,95929
2022-09-09T11:57:04.796Z,95927
2022-09-09T11:58:04.789Z,95931
2022-09-09T11:59:04.802Z,95929
2022-09-09T12:00:04.780Z,95926
2022-09-09T12:01:04.837Z,95927
2022-09-09T12:02:04.800Z,95930
2022-09-09T12:03:04.772Z,95925
2022-09-09T12:05:04.808Z,95916
2022-09-09T12:06:04.815Z,95915
2022-09-09T12:07:08.348Z,95914
2022-09-09T12:08:04.795Z,95916
2022-09-09T12:09:04.801Z,95916
2022-09-09T12:10:04.792Z,95914
2022-09-09T12:11:04.825Z,95919
2022-09-09T12:12:04.793Z,95913
2022-09-09T12:13:04.811Z,95913
2022-09-09T12:14:04.795Z,95913
2022-09-09T12:15:04.814Z,95907
2022-09-09T12:16:04.850Z,95911
2022-09-09T12:17:04.809Z,95907
2022-09-09T12:18:04.813Z,95902
2022-09-09T12:19:04.826Z,95904
2022-09-09T12:20:04.963Z,95902
2022-09-09T12:21:04.907Z,95903
2022-09-09T12:22:04.846Z,95896
2022-09-09T12:23:04.824Z,95906
2022-09-09T12:24:04.835Z,95893
2022-09-09T12:25:04.836Z,95901
2022-09-09T12:26:04.862Z,95892
2022-09-09T12:27:04.845Z,95893
2022-09-09T12:28:04.837Z,95893
2022-09-09T12:29:04.835Z,95892
2022-09-09T12:30:04.959Z,95900
2022-09-09T12:31:04.949Z,95900
2022-09-09T12:32:04.864Z,95897
2022-09-09T12:33:04.869Z,95890
2022-09-09T12:34:04.858Z,95884
2022-09-09T12:35:04.849Z,95887
2022-09-09T12:36:04.922Z,95890
2022-09-09T12:37:04.871Z,95882
2022-09-09T12:38:04.863Z,95878
2022-09-09T12:39:04.904Z,95881
2022-09-09T12:41:04.958Z,95882
2022-09-09T12:42:04.864Z,95878
2022-09-09T12:43:04.902Z,95877
2022-09-09T12:44:08.465Z,95869
2022-09-09T12:45:04.891Z,95880
2022-09-09T12:46:05.013Z,95875
2022-09-09T12:47:04.882Z,95873
2022-09-09T12:48:04.883Z,95870
2022-09-09T12:49:04.888Z,95867
2022-09-09T12:50:04.909Z,95861
2022-09-09T12:51:04.929Z,95863
2022-09-09T12:52:04.898Z,95861
2022-09-09T12:54:04.903Z,95862
2022-09-09T12:55:04.924Z,95858
2022-09-09T12:56:04.979Z,95858
2022-09-09T12:57:04.920Z,95863
2022-09-09T12:58:04.943Z,95866
2022-09-09T12:59:04.931Z,95871
2022-09-09T13:02:05.118Z,95868
2022-09-09T13:03:04.936Z,95875
2022-09-09T13:04:04.921Z,95870
2022-09-09T13:05:04.924Z,95859
2022-09-09T13:06:04.951Z,95863
2022-09-09T13:07:04.958Z,95861
2022-09-09T13:08:04.951Z,95863
2022-09-09T13:09:04.969Z,95853
2022-09-09T13:10:05.059Z,95867
2022-09-09T13:11:04.983Z,95865
2022-09-09T13:12:05.626Z,95858
2022-09-09T13:13:04.954Z,95856
2022-09-09T13:14:04.973Z,95858
2022-09-09T13:15:04.957Z,95860
2022-09-09T13:16:05.043Z,95860
2022-09-09T13:17:04.963Z,95859
2022-09-09T13:18:05.030Z,95863
2022-09-09T13:19:04.984Z,95857
2022-09-09T13:20:04.991Z,95855
2022-09-09T13:21:08.660Z,95855
2022-09-09T13:22:04.968Z,95859
2022-09-09T13:23:05.027Z,95857
2022-09-09T13:24:04.983Z,95856
2022-09-09T13:26:05.008Z,95845
2022-09-09T13:27:04.983Z,95852
2022-09-09T13:28:05.016Z,95848
2022-09-09T13:29:04.999Z,95851
2022-09-09T13:30:04.993Z,95833
2022-09-09T13:31:05.055Z,95839
2022-09-09T13:32:05.017Z,95848
2022-09-09T13:33:05.041Z,95844
2022-09-09T13:34:05.024Z,95845
2022-09-09T13:35:05.004Z,95850
2022-09-09T13:36:05.019Z,95846
2022-09-09T13:37:05.022Z,95849
2022-09-09T13:38:05.071Z,95830
2022-09-09T13:39:05.032Z,95840
2022-09-09T13:40:05.122Z,95840
2022-09-09T13:41:05.047Z,95836
2022-09-09T13:42:05.048Z,95832
2022-09-09T13:44:05.074Z,95848
2022-09-09T13:45:05.052Z,95835
2022-09-09T13:46:05.085Z,95842
2022-09-09T13:47:10.016Z,95836
2022-09-09T13:48:05.072Z,95842
2022-09-09T13:49:05.091Z,95840
2022-09-09T13:51:05.056Z,95835
2022-09-09T13:52:05.067Z,95839
2022-09-09T13:53:05.052Z,95836
2022-09-09T13:54:05.057Z,95831
2022-09-09T13:55:05.104Z,95844
2022-09-09T13:56:05.076Z,95836
2022-09-09T13:57:05.065Z,95844
2022-09-09T13:58:08.827Z,95834
2022-09-09T13:59:05.078Z,95827
2022-09-09T14:00:06.020Z,95830
2022-09-09T14:01:05.152Z,95826
2022-09-09T14:03:05.117Z,95827
2022-09-09T14:04:05.098Z,95816
2022-09-09T14:05:05.133Z,95820
2022-09-09T14:07:05.124Z,95825
2022-09-09T14:08:05.128Z,95827
2022-09-09T14:10:05.151Z,95828
2022-09-09T14:11:05.106Z,95824
2022-09-09T14:12:05.118Z,95828
2022-09-09T14:13:05.133Z,95821
2022-09-09T14:14:05.113Z,95820
2022-09-09T14:15:05.182Z,95815
2022-09-09T14:16:05.208Z,95826
2022-09-09T14:17:07.521Z,95824
2022-09-09T14:18:05.129Z,95826
2022-09-09T14:19:05.138Z,95828
2022-09-09T14:20:05.157Z,95827
2022-09-09T14:21:05.138Z,95835
2022-09-09T14:22:05.137Z,95828
2022-09-09T14:23:05.171Z,95837
2022-09-09T14:24:05.141Z,95845
2022-09-09T14:25:05.457Z,95837